Time;durP1;ratioP1;P1;durP2;ratioP2;P2;SDS_P1;SDS_P2;PMS_P1;PMS_P2;Temp;Humidity;BMP_temperature;BMP_pressure;BME280_temperature;BME280_humidity;BME280_pressure;Samples;Min_cycle;Max_cycle;Signal;HPM_P1;HPM_P2
2023/10/08 00:01:33;;;;;;;6.07;5.57;;;20.40;99.90;;;;;;4959560;28;20791;-67
2023/10/08 00:04:00;;;;;;;6.97;5.27;;;20.40;99.90;;;;;;4960477;28;20530;-67
2023/10/08 00:06:27;;;;;;;5.70;5.20;;;20.40;99.90;;;;;;4973826;28;20420;-67
2023/10/08 00:08:59;;;;;;;5.40;4.90;;;20.40;99.90;;;;;;4973621;28;20422;-66
2023/10/08 00:11:26;;;;;;;6.00;5.40;;;20.40;99.90;;;;;;4973189;28;20408;-66
2023/10/08 00:13:56;;;;;;;7.77;5.63;;;20.30;99.90;;;;;;4971229;28;20423;-67
2023/10/08 00:16:22;;;;;;;7.83;5.40;;;20.30;99.90;;;;;;4966721;28;20863;-67
2023/10/08 00:18:50;;;;;;;6.67;5.57;;;20.30;99.90;;;;;;4973472;28;20423;-67
2023/10/08 00:21:27;;;;;;;8.77;5.50;;;20.30;99.90;;;;;;4974486;28;20822;-67
2023/10/08 00:23:55;;;;;;;6.10;5.50;;;20.40;99.90;;;;;;4970110;28;20518;-66
2023/10/08 00:26:27;;;;;;;6.07;5.33;;;20.30;99.90;;;;;;4976061;28;20412;-67
2023/10/08 00:28:56;;;;;;;6.20;5.70;;;20.30;99.90;;;;;;4976645;28;20542;-67
2023/10/08 00:31:31;;;;;;;7.03;6.07;;;20.30;99.90;;;;;;4975656;28;20432;-67
2023/10/08 00:33:59;;;;;;;7.33;5.43;;;20.30;99.90;;;;;;4976669;28;20450;-66
2023/10/08 00:36:25;;;;;;;6.87;6.20;;;20.40;99.90;;;;;;4976001;28;20513;-66
2023/10/08 00:38:58;;;;;;;7.90;6.10;;;20.40;99.90;;;;;;4975942;28;20514;-65
2023/10/08 00:41:28;;;;;;;7.10;6.27;;;20.40;99.90;;;;;;4973171;28;20204;-66
2023/10/08 00:44:00;;;;;;;7.40;5.80;;;20.30;99.90;;;;;;4976092;28;20431;-67
2023/10/08 00:46:31;;;;;;;8.53;6.00;;;20.30;99.90;;;;;;4954516;28;20511;-66
2023/10/08 00:48:58;;;;;;;7.13;6.27;;;20.30;99.90;;;;;;4956875;28;20451;-66
2023/10/08 00:51:26;;;;;;;11.30;6.13;;;20.30;99.90;;;;;;4956246;28;20522;-64
2023/10/08 00:54:06;;;;;;;6.53;5.40;;;20.30;99.90;;;;;;4976193;28;20831;-69
2023/10/08 00:59:21;;;;;;;5.77;5.27;;;20.30;99.90;;;;;;4975595;28;20494;-66
2023/10/08 01:01:59;;;;;;;8.47;6.40;;;20.30;99.90;;;;;;4976355;28;20408;-66
2023/10/08 01:04:33;;;;;;;7.33;5.70;;;20.30;99.90;;;;;;4974940;28;20418;-66
2023/10/08 01:07:12;;;;;;;7.30;5.90;;;20.30;99.90;;;;;;4974835;28;20420;-66
2023/10/08 01:09:42;;;;;;;5.83;5.20;;;20.20;99.90;;;;;;4976118;28;20457;-66
2023/10/08 01:12:15;;;;;;;5.87;5.37;;;20.30;99.90;;;;;;4957602;28;20796;-66
2023/10/08 01:14:42;;;;;;;6.20;5.70;;;20.20;99.90;;;;;;4976112;28;20432;-67
2023/10/08 01:17:12;;;;;;;6.10;5.50;;;20.20;99.90;;;;;;4975027;28;20895;-66
2023/10/08 01:19:42;;;;;;;10.00;6.50;;;20.20;99.90;;;;;;4952584;29;20447;-67
2023/10/08 01:22:16;;;;;;;7.40;6.67;;;20.10;99.90;;;;;;4964241;28;20439;-66
2023/10/08 01:24:43;;;;;;;8.30;6.73;;;20.10;99.90;;;;;;4975440;28;20473;-68
2023/10/08 01:27:11;;;;;;;6.70;6.07;;;20.10;99.90;;;;;;4974696;28;20463;-66
2023/10/08 01:29:39;;;;;;;8.03;6.50;;;20.10;99.90;;;;;;4958631;28;20447;-67
2023/10/08 01:32:10;;;;;;;8.00;6.00;;;20.10;99.90;;;;;;4974006;28;20501;-60
2023/10/08 01:34:36;;;;;;;6.77;6.17;;;20.10;99.90;;;;;;4975518;28;20795;-67
2023/10/08 01:37:08;;;;;;;7.67;6.27;;;20.10;99.90;;;;;;4975279;28;20432;-60
2023/10/08 01:39:42;;;;;;;7.73;6.27;;;20.10;99.90;;;;;;4975338;28;20427;-66
2023/10/08 01:42:16;;;;;;;6.87;6.10;;;20.10;99.90;;;;;;4974854;28;20869;-66
2023/10/08 01:44:46;;;;;;;7.37;6.53;;;20.10;99.90;;;;;;4975561;28;20476;-67
2023/10/08 01:47:12;;;;;;;7.23;6.53;;;20.10;99.90;;;;;;4974456;28;20816;-66
2023/10/08 01:49:39;;;;;;;7.40;6.50;;;20.10;99.90;;;;;;4975125;28;20464;-66
2023/10/08 01:52:13;;;;;;;7.17;6.40;;;20.10;99.90;;;;;;4974261;28;20435;-61
2023/10/08 01:54:39;;;;;;;9.50;6.30;;;20.10;99.90;;;;;;4975195;28;20918;-66
2023/10/08 01:57:05;;;;;;;7.20;6.50;;;20.20;99.90;;;;;;4974664;28;20412;-60
2023/10/08 01:59:32;;;;;;;6.90;6.20;;;20.20;99.90;;;;;;4974822;28;20424;-66
2023/10/08 02:01:58;;;;;;;5.80;5.30;;;20.20;99.90;;;;;;4974891;28;20432;-66
2023/10/08 02:04:25;;;;;;;6.37;5.30;;;20.20;99.90;;;;;;4974136;28;20507;-66
2023/10/08 02:06:50;;;;;;;6.47;5.60;;;20.20;99.90;;;;;;4975437;28;20273;-66
2023/10/08 02:09:16;;;;;;;7.00;6.30;;;20.20;99.90;;;;;;4974234;28;20456;-66
2023/10/08 02:11:50;;;;;;;7.43;6.57;;;20.20;99.90;;;;;;4975002;28;20525;-66
2023/10/08 02:14:16;;;;;;;9.00;5.87;;;20.20;99.90;;;;;;4972833;28;20168;-65
2023/10/08 02:16:44;;;;;;;6.67;5.90;;;20.20;99.90;;;;;;4974943;28;20412;-66
2023/10/08 02:19:12;;;;;;;8.77;6.30;;;20.20;99.90;;;;;;4973827;28;20924;-66
2023/10/08 02:21:46;;;;;;;9.33;5.87;;;20.20;99.90;;;;;;4974453;28;20434;-66
2023/10/08 02:24:12;;;;;;;6.70;6.00;;;20.20;99.90;;;;;;4974061;28;20454;-66
2023/10/08 02:26:42;;;;;;;6.63;6.03;;;20.20;99.90;;;;;;4974507;28;20504;-66
2023/10/08 02:29:12;;;;;;;10.30;6.77;;;20.20;99.90;;;;;;4974500;28;20460;-60
2023/10/08 02:31:39;;;;;;;8.73;7.27;;;20.20;99.90;;;;;;4974992;28;20907;-67
2023/10/08 02:34:07;;;;;;;9.33;6.20;;;20.20;99.90;;;;;;4974612;28;20412;-66
2023/10/08 02:36:36;;;;;;;9.07;6.50;;;20.20;99.90;;;;;;4974028;28;20919;-66
2023/10/08 02:39:13;;;;;;;6.83;6.00;;;20.20;99.90;;;;;;4974543;28;20801;-66
2023/10/08 02:41:46;;;;;;;7.70;6.37;;;20.20;99.90;;;;;;4957370;28;20414;-66
2023/10/08 02:44:13;;;;;;;8.63;6.57;;;20.10;99.90;;;;;;4972608;28;20934;-65
2023/10/08 02:46:47;;;;;;;8.50;6.73;;;20.10;99.90;;;;;;4974387;28;20412;-66
2023/10/08 02:49:16;;;;;;;6.20;5.63;;;20.10;99.90;;;;;;4955834;28;20455;-65
2023/10/08 02:51:44;;;;;;;6.23;5.50;;;20.00;99.90;;;;;;4973349;28;20432;-66
2023/10/08 02:54:20;;;;;;;8.60;6.10;;;20.00;99.90;;;;;;4973526;28;20416;-60
2023/10/08 02:56:51;;;;;;;7.93;6.30;;;20.00;99.90;;;;;;4974268;28;20423;-66
2023/10/08 02:59:16;;;;;;;6.50;5.90;;;20.00;99.90;;;;;;4973447;28;20412;-67
2023/10/08 03:01:42;;;;;;;7.50;6.20;;;19.90;99.90;;;;;;4973922;28;20798;-66
2023/10/08 03:04:22;;;;;;;8.67;6.00;;;19.90;99.90;;;;;;4973680;28;20180;-60
2023/10/08 03:06:52;;;;;;;7.50;6.70;;;19.90;99.90;;;;;;4974210;28;20160;-66
2023/10/08 03:09:23;;;;;;;6.90;5.97;;;19.90;99.90;;;;;;4973366;28;20482;-66
2023/10/08 03:11:50;;;;;;;12.47;6.70;;;19.90;99.90;;;;;;4974101;28;20455;-66
2023/10/08 03:14:23;;;;;;;8.00;7.20;;;19.90;99.90;;;;;;4972223;28;20447;-66
2023/10/08 03:16:50;;;;;;;6.97;6.30;;;19.90;99.90;;;;;;4973734;28;20415;-67
2023/10/08 03:19:19;;;;;;;8.80;6.07;;;19.90;99.90;;;;;;4969311;28;20467;-66
2023/10/08 03:21:51;;;;;;;7.20;6.50;;;19.90;99.90;;;;;;4955736;28;20425;-66
2023/10/08 03:27:20;;;;;;;8.27;7.30;;;19.90;99.90;;;;;;4954705;28;20555;-66
2023/10/08 03:29:49;;;;;;;9.07;6.97;;;19.90;99.90;;;;;;4954372;28;20547;-66
2023/10/08 03:32:18;;;;;;;9.87;6.80;;;19.80;99.90;;;;;;4953367;29;20439;-66
2023/10/08 03:34:46;;;;;;;7.70;6.80;;;19.90;99.90;;;;;;4956899;28;20491;-66
2023/10/08 03:37:19;;;;;;;7.93;7.10;;;19.90;99.90;;;;;;4971855;28;20411;-59
2023/10/08 03:40:22;;;;;;;11.03;7.43;;;19.90;99.90;;;;;;4973781;28;20812;-66
2023/10/08 03:42:49;;;;;;;7.53;6.83;;;19.90;99.90;;;;;;4973689;28;20411;-66
2023/10/08 03:45:22;;;;;;;9.93;6.73;;;19.90;99.90;;;;;;4971634;28;20482;-66
2023/10/08 03:48:03;;;;;;;8.23;7.30;;;19.90;99.90;;;;;;4973543;28;20431;-66
2023/10/08 03:50:32;;;;;;;8.50;7.10;;;19.90;99.90;;;;;;4972320;28;20451;-66
2023/10/08 03:52:58;;;;;;;10.30;7.43;;;19.90;99.90;;;;;;4973160;28;20510;-66
2023/10/08 03:55:27;;;;;;;8.47;6.93;;;19.80;99.90;;;;;;4974186;28;20967;-66
2023/10/08 03:58:03;;;;;;;7.93;7.13;;;19.80;99.90;;;;;;4979942;28;20201;-66
2023/10/08 04:00:31;;;;;;;10.63;7.30;;;19.80;99.90;;;;;;4979167;28;20419;-66
2023/10/08 04:03:01;;;;;;;11.20;7.67;;;19.80;99.90;;;;;;4979701;28;20419;-66
2023/10/08 04:05:32;;;;;;;8.00;6.57;;;19.80;99.90;;;;;;4979053;28;20403;-66
2023/10/08 04:11:07;;;;;;;8.33;6.90;;;19.80;99.90;;;;;;4978880;28;20494;-66
2023/10/08 04:13:24;;;;;;;8.67;7.80;;;19.80;99.90;;;;;;4977498;28;20207;-65
2023/10/08 04:15:50;;;;;;;8.50;6.37;;;19.80;99.90;;;;;;4980075;28;20903;-66
2023/10/08 04:18:16;;;;;;;7.70;6.90;;;19.80;99.90;;;;;;4978929;28;20187;-64
2023/10/08 04:23:26;;;;;;;9.53;7.40;;;19.80;99.90;;;;;;4978859;28;20211;-65
2023/10/08 04:25:55;;;;;;;8.50;6.60;;;19.80;99.90;;;;;;4979555;28;20407;-68
2023/10/08 04:28:22;;;;;;;7.87;6.67;;;19.70;99.90;;;;;;4978828;28;20475;-65
2023/10/08 04:30:48;;;;;;;7.43;6.63;;;19.70;99.90;;;;;;4979156;28;21026;-65
2023/10/08 04:33:14;;;;;;;6.97;6.37;;;19.70;99.90;;;;;;4978925;28;20420;-59
2023/10/08 04:35:58;;;;;;;7.20;6.60;;;19.70;99.90;;;;;;4979485;28;20261;-66
2023/10/08 04:38:26;;;;;;;9.73;6.83;;;19.70;99.90;;;;;;4979076;28;20403;-65
2023/10/08 04:40:52;;;;;;;9.23;7.37;;;19.60;99.90;;;;;;4977879;28;20467;-65
2023/10/08 04:43:25;;;;;;;7.67;6.97;;;19.60;99.90;;;;;;4977723;28;20439;-64
2023/10/08 04:48:49;;;;;;;7.43;6.57;;;19.60;99.90;;;;;;4979602;28;20392;-65
2023/10/08 04:51:17;;;;;;;12.23;7.10;;;19.50;99.90;;;;;;4978917;28;20530;-60
2023/10/08 04:53:47;;;;;;;10.43;7.13;;;19.60;99.90;;;;;;4979192;28;20529;-65
2023/10/08 04:56:16;;;;;;;9.40;7.70;;;19.60;99.90;;;;;;4979303;28;20443;-66
2023/10/08 04:58:46;;;;;;;9.37;8.37;;;19.60;99.90;;;;;;4979071;28;20412;-66
2023/10/08 05:12:11;;;;;;;9.57;7.93;;;19.50;99.90;;;;;;4976633;28;20446;-67
2023/10/08 05:14:45;;;;;;;7.70;6.73;;;19.50;99.90;;;;;;4975351;28;20396;-68
2023/10/08 05:17:22;;;;;;;8.37;7.23;;;19.50;99.90;;;;;;4976165;28;20812;-68
2023/10/08 05:20:17;;;;;;;8.77;7.03;;;19.50;99.90;;;;;;4976302;28;20447;-68
2023/10/08 05:22:55;;;;;;;8.50;7.60;;;19.50;99.90;;;;;;4975729;28;20407;-67
2023/10/08 05:30:28;;;;;;;8.20;7.40;;;19.50;99.90;;;;;;4974223;28;20230;-68
2023/10/08 05:43:48;;;;;;;11.90;8.30;;;19.40;99.90;;;;;;4974819;28;20447;-67
2023/10/08 05:49:03;;;;;;;13.60;9.67;;;19.40;99.90;;;;;;4975563;28;20427;-68
2023/10/08 05:57:14;;;;;;;10.37;7.97;;;19.40;99.90;;;;;;4975151;28;20806;-68
2023/10/08 06:03:09;;;;;;;8.63;7.70;;;19.40;99.90;;;;;;4972921;28;20833;-65
2023/10/08 06:07:55;;;;;;;9.17;8.33;;;19.40;99.90;;;;;;4974243;28;20567;-69
2023/10/08 06:16:05;;;;;;;8.93;8.10;;;19.40;99.90;;;;;;4974365;28;20432;-67
2023/10/08 06:18:32;;;;;;;11.73;7.90;;;19.40;99.90;;;;;;4974325;28;20519;-67
2023/10/08 06:21:08;;;;;;;9.57;8.27;;;19.40;99.90;;;;;;4975200;28;20420;-67
2023/10/08 06:23:37;;;;;;;8.77;7.97;;;19.40;99.90;;;;;;4974410;28;20801;-67
2023/10/08 06:28:35;;;;;;;10.70;8.43;;;19.40;99.90;;;;;;4954995;29;20551;-67
2023/10/08 06:31:06;;;;;;;14.30;8.13;;;19.40;99.90;;;;;;4955493;29;20547;-67
2023/10/08 06:33:33;;;;;;;11.60;9.00;;;19.40;99.90;;;;;;4955233;29;20172;-68
2023/10/08 06:36:05;;;;;;;9.90;8.40;;;19.40;99.90;;;;;;4957410;28;20416;-68
2023/10/08 06:38:35;;;;;;;8.67;7.87;;;19.40;99.90;;;;;;4974381;28;20764;-67
2023/10/08 06:43:49;;;;;;;9.30;8.40;;;19.40;99.90;;;;;;4972005;28;20505;-71
2023/10/08 06:46:18;;;;;;;11.90;8.67;;;19.40;99.90;;;;;;4974481;28;20467;-71
2023/10/08 06:48:45;;;;;;;9.03;7.70;;;19.50;99.90;;;;;;4973596;28;20460;-71
2023/10/08 06:51:17;;;;;;;11.70;8.83;;;19.50;99.90;;;;;;4974410;28;20463;-71
2023/10/08 06:53:47;;;;;;;11.63;8.37;;;19.60;99.90;;;;;;4956269;28;21081;-72
2023/10/08 06:56:19;;;;;;;9.23;8.30;;;19.70;99.90;;;;;;4962738;28;20457;-71
2023/10/08 06:58:52;;;;;;;8.83;8.03;;;19.70;99.90;;;;;;4954817;28;20476;-71
2023/10/08 07:01:21;;;;;;;17.67;10.00;;;19.70;99.90;;;;;;4973892;28;20506;-71
2023/10/08 07:03:51;;;;;;;11.23;8.30;;;19.70;99.90;;;;;;4973489;28;20412;-71
2023/10/08 07:06:31;;;;;;;10.40;9.23;;;19.70;99.90;;;;;;4974071;28;20781;-71
2023/10/08 07:08:59;;;;;;;10.03;8.67;;;19.80;99.90;;;;;;4974186;28;20408;-71
2023/10/08 07:11:26;;;;;;;10.83;8.77;;;19.80;99.90;;;;;;4973609;28;20416;-64
2023/10/08 07:13:52;;;;;;;12.80;8.60;;;19.80;99.90;;;;;;4973129;28;20424;-72
2023/10/08 07:16:20;;;;;;;12.07;8.43;;;19.80;99.90;;;;;;4974152;28;20415;-71
2023/10/08 07:18:54;;;;;;;11.87;8.67;;;19.80;99.90;;;;;;4973411;28;20423;-71
2023/10/08 07:21:29;;;;;;;11.93;9.87;;;19.80;99.90;;;;;;4974548;28;20759;-71
2023/10/08 07:23:59;;;;;;;15.40;9.97;;;19.80;99.90;;;;;;4974596;28;20402;-70
2023/10/08 07:26:36;;;;;;;13.57;10.30;;;19.80;99.90;;;;;;4973310;28;20412;-70
2023/10/08 07:29:07;;;;;;;10.53;9.43;;;19.80;99.90;;;;;;4956710;28;20485;-71
2023/10/08 07:31:36;;;;;;;9.27;8.30;;;19.80;99.90;;;;;;4966632;28;20488;-71
2023/10/08 07:34:18;;;;;;;9.30;8.10;;;19.80;99.90;;;;;;4954988;28;20503;-71
2023/10/08 07:36:49;;;;;;;9.37;8.43;;;19.80;99.90;;;;;;4954248;28;20415;-71
2023/10/08 07:41:58;;;;;;;14.37;11.37;;;19.80;99.90;;;;;;4968494;28;20467;-71
2023/10/08 07:44:28;;;;;;;17.27;12.73;;;19.80;99.90;;;;;;4966556;28;20425;-65
2023/10/08 07:46:54;;;;;;;15.20;12.17;;;19.80;99.90;;;;;;4964459;28;20914;-71
2023/10/08 07:49:22;;;;;;;25.63;19.03;;;19.80;99.90;;;;;;4961500;28;20466;-71
2023/10/08 07:51:52;;;;;;;24.20;20.37;;;19.80;99.90;;;;;;4963767;28;20448;-71
2023/10/08 07:54:24;;;;;;;14.37;13.00;;;19.80;99.90;;;;;;4969803;28;20514;-71
2023/10/08 07:57:08;;;;;;;14.00;12.70;;;19.60;99.90;;;;;;4971633;28;20494;-70
2023/10/08 07:59:38;;;;;;;19.70;16.23;;;19.30;99.90;;;;;;4967989;28;20434;-66
2023/10/08 08:02:11;;;;;;;26.87;16.30;;;19.20;99.90;;;;;;4965320;28;20428;-68
2023/10/08 08:04:40;;;;;;;12.80;10.53;;;19.10;99.90;;;;;;4958179;28;20474;-67
2023/10/08 08:07:07;;;;;;;18.00;16.10;;;19.10;99.90;;;;;;4973318;28;20427;-66
2023/10/08 08:09:37;;;;;;;12.47;11.17;;;19.20;99.90;;;;;;4972770;28;20459;-67
2023/10/08 08:12:10;;;;;;;21.33;17.67;;;19.20;99.90;;;;;;4955919;28;20891;-66
2023/10/08 08:14:38;;;;;;;14.70;12.60;;;19.10;99.90;;;;;;4955822;28;20427;-66
2023/10/08 08:17:13;;;;;;;18.23;14.27;;;19.10;99.90;;;;;;4956376;28;20400;-67
2023/10/08 08:19:52;;;;;;;16.73;13.30;;;19.10;99.90;;;;;;4972364;28;20427;-67
2023/10/08 08:22:23;;;;;;;17.20;14.03;;;19.20;99.90;;;;;;4973239;28;20778;-67
2023/10/08 08:24:55;;;;;;;13.83;9.93;;;19.20;99.90;;;;;;4961543;28;20446;-66
2023/10/08 08:27:24;;;;;;;10.83;9.53;;;19.30;99.90;;;;;;4972515;28;20483;-66
2023/10/08 08:29:56;;;;;;;10.67;8.40;;;19.30;99.90;;;;;;4972234;28;20478;-65
2023/10/08 08:32:23;;;;;;;7.33;6.63;;;19.30;99.90;;;;;;4973197;28;20431;-66
2023/10/08 08:34:50;;;;;;;8.87;7.97;;;19.30;99.90;;;;;;4972082;28;20779;-71
2023/10/08 08:37:22;;;;;;;17.50;12.00;;;19.20;99.90;;;;;;4973277;28;20419;-71
2023/10/08 08:39:48;;;;;;;14.87;12.30;;;19.20;99.90;;;;;;4972425;28;20436;-71
2023/10/08 08:42:16;;;;;;;5.00;4.60;;;19.10;99.90;;;;;;4973715;28;20443;-71
2023/10/08 08:44:50;;;;;;;5.37;4.87;;;19.00;99.90;;;;;;4976290;28;20489;-71
2023/10/08 08:47:18;;;;;;;7.83;6.13;;;19.00;99.90;;;;;;4976739;28;20423;-71
2023/10/08 08:49:45;;;;;;;5.63;4.77;;;18.90;99.90;;;;;;4975846;28;20986;-71
2023/10/08 08:52:12;;;;;;;4.20;3.90;;;18.90;99.90;;;;;;4976399;28;20426;-71
2023/10/08 08:54:39;;;;;;;4.13;3.40;;;18.90;99.90;;;;;;4958326;28;20841;-74
2023/10/08 08:57:10;;;;;;;8.13;4.10;;;18.70;99.90;;;;;;4959460;28;20537;-71
2023/10/08 08:59:36;;;;;;;4.77;4.40;;;18.70;99.90;;;;;;4957244;29;20415;-71
2023/10/08 09:02:04;;;;;;;5.67;3.83;;;18.70;99.90;;;;;;4957522;28;20520;-71
2023/10/08 09:04:32;;;;;;;4.40;4.00;;;18.70;99.90;;;;;;4956774;29;20412;-70
2023/10/08 09:07:04;;;;;;;2.70;2.60;;;18.60;99.90;;;;;;4955785;29;20424;-69
2023/10/08 09:09:35;;;;;;;3.10;3.00;;;18.40;99.90;;;;;;4953208;29;20468;-71
2023/10/08 09:12:01;;;;;;;3.20;3.00;;;18.30;99.90;;;;;;4961835;28;20838;-70
2023/10/08 09:14:34;;;;;;;127.87;92.80;;;18.20;99.90;;;;;;4972890;28;20416;-70
2023/10/08 09:17:01;;;;;;;212.77;158.07;;;18.20;99.90;;;;;;4973186;28;20403;-70
2023/10/08 09:19:27;;;;;;;107.53;73.07;;;18.20;99.90;;;;;;4972816;28;20420;-70
2023/10/08 09:22:12;;;;;;;50.13;37.37;;;18.10;99.90;;;;;;4971723;28;20404;-66
2023/10/08 09:24:42;;;;;;;4.67;4.47;;;18.20;99.90;;;;;;4974800;28;20432;-73
2023/10/08 09:27:15;;;;;;;5.00;4.63;;;18.20;99.90;;;;;;4965092;28;20472;-73
2023/10/08 09:29:41;;;;;;;5.00;4.60;;;18.20;99.90;;;;;;4974712;28;20471;-71
2023/10/08 09:32:13;;;;;;;3.87;3.57;;;18.10;99.90;;;;;;4976211;28;20831;-74
2023/10/08 09:34:40;;;;;;;3.67;3.33;;;18.10;99.90;;;;;;4975094;28;20894;-73
2023/10/08 09:37:07;;;;;;;16.07;13.07;;;18.10;99.90;;;;;;4974708;28;20415;-69
2023/10/08 09:39:33;;;;;;;11.10;8.60;;;18.10;99.90;;;;;;4956453;29;20466;-68
2023/10/08 09:42:02;;;;;;;12.57;9.67;;;18.30;99.90;;;;;;4964171;28;20752;-69
2023/10/08 09:44:30;;;;;;;12.90;10.70;;;18.40;99.90;;;;;;4975575;28;20438;-72
2023/10/08 09:47:05;;;;;;;5.07;4.67;;;18.40;99.90;;;;;;4975898;28;20431;-72
2023/10/08 09:49:50;;;;;;;3.07;2.97;;;18.50;99.90;;;;;;4974622;28;20482;-69
2023/10/08 09:52:19;;;;;;;2.67;2.57;;;18.30;99.90;;;;;;4976009;28;20459;-71
2023/10/08 09:55:02;;;;;;;2.93;2.80;;;18.20;99.90;;;;;;4974193;28;20420;-71
2023/10/08 09:57:28;;;;;;;2.53;2.43;;;18.00;99.90;;;;;;4972337;28;20519;-71
2023/10/08 09:59:54;;;;;;;2.63;2.50;;;17.90;99.90;;;;;;4955526;29;20515;-71
2023/10/08 10:02:26;;;;;;;2.60;2.50;;;17.70;99.90;;;;;;4956318;29;20177;-71
2023/10/08 10:04:52;;;;;;;2.60;2.50;;;17.60;99.90;;;;;;4966197;28;21072;-72
2023/10/08 10:07:20;;;;;;;2.63;2.53;;;17.60;99.90;;;;;;4974335;28;20427;-70
2023/10/08 10:09:49;;;;;;;80.77;71.33;;;17.50;99.90;;;;;;4974112;28;20467;-73
2023/10/08 10:12:26;;;;;;;347.83;234.40;;;17.50;99.90;;;;;;4957145;28;20431;-73
2023/10/08 10:14:56;;;;;;;12.30;8.13;;;17.50;99.90;;;;;;4974523;28;20503;-70
2023/10/08 10:17:28;;;;;;;3.17;2.97;;;17.40;99.90;;;;;;4975034;28;20849;-73
2023/10/08 10:19:59;;;;;;;2.53;2.43;;;17.30;99.90;;;;;;4975010;28;20442;-69
2023/10/08 10:22:34;;;;;;;3.13;3.03;;;17.30;99.90;;;;;;4974517;28;20412;-73
2023/10/08 10:25:17;;;;;;;2.63;2.50;;;17.30;99.90;;;;;;4955995;29;20758;-70
2023/10/08 10:27:55;;;;;;;2.63;2.53;;;17.30;99.90;;;;;;4970395;28;20876;-71
2023/10/08 10:30:23;;;;;;;2.63;2.53;;;17.40;99.90;;;;;;4957912;28;20824;-72
2023/10/08 10:32:52;;;;;;;2.40;2.30;;;17.40;99.90;;;;;;4974361;28;20430;-72
2023/10/08 10:35:18;;;;;;;2.47;2.37;;;17.40;99.90;;;;;;4975125;28;20895;-72
2023/10/08 10:37:51;;;;;;;2.20;2.10;;;17.40;99.90;;;;;;4974067;28;20438;-70
2023/10/08 10:40:29;;;;;;;2.37;2.27;;;17.40;99.90;;;;;;4971408;28;20438;-71
2023/10/08 10:43:01;;;;;;;2.27;2.00;;;17.40;99.90;;;;;;4969606;28;20434;-71
2023/10/08 10:45:36;;;;;;;2.40;2.30;;;17.50;99.90;;;;;;4954093;28;20411;-69
2023/10/08 10:48:21;;;;;;;3.07;2.90;;;17.50;99.90;;;;;;4971288;28;20523;-70
2023/10/08 10:53:33;;;;;;;67.23;51.67;;;17.30;99.90;;;;;;4971323;28;20403;-71
2023/10/08 10:56:03;;;;;;;5.50;5.10;;;17.30;99.90;;;;;;4953761;28;20943;-72
2023/10/08 10:58:38;;;;;;;3.03;2.93;;;17.40;99.90;;;;;;4971073;28;20525;-71
2023/10/08 11:01:21;;;;;;;3.90;2.00;;;17.40;99.90;;;;;;4972682;28;20410;-73
2023/10/08 11:03:52;;;;;;;2.40;2.20;;;17.50;99.90;;;;;;4973753;28;20605;-73
2023/10/08 11:06:22;;;;;;;2.60;2.50;;;17.60;99.90;;;;;;4972871;28;20486;-72
2023/10/08 11:08:52;;;;;;;2.20;2.10;;;17.60;99.90;;;;;;4973326;28;20971;-72
2023/10/08 11:11:19;;;;;;;2.20;2.10;;;17.60;99.90;;;;;;4973635;28;20495;-72
2023/10/08 11:13:54;;;;;;;5.40;4.90;;;17.70;99.90;;;;;;4973077;28;20424;-74
2023/10/08 11:16:23;;;;;;;3.93;2.87;;;17.60;99.90;;;;;;4971485;28;21101;-73
2023/10/08 11:18:51;;;;;;;3.17;2.77;;;17.60;99.90;;;;;;4971500;28;20423;-70
2023/10/08 11:21:22;;;;;;;2.30;2.20;;;17.70;99.90;;;;;;4969331;28;20421;-70
2023/10/08 11:23:59;;;;;;;2.23;2.17;;;17.70;99.90;;;;;;4955016;28;20427;-72
2023/10/08 11:26:32;;;;;;;1.93;1.83;;;17.80;99.90;;;;;;4953511;28;20918;-72
2023/10/08 11:29:02;;;;;;;2.03;1.93;;;17.80;99.90;;;;;;4967183;28;20791;-72
2023/10/08 11:31:29;;;;;;;2.13;2.10;;;17.90;99.90;;;;;;4966085;28;20457;-73
2023/10/08 11:34:08;;;;;;;2.73;2.63;;;18.00;99.90;;;;;;4959974;28;20850;-73
2023/10/08 11:36:58;;;;;;;2.87;2.73;;;18.00;99.90;;;;;;4952930;28;20415;-75
2023/10/08 11:39:23;;;;;;;2.97;2.83;;;18.10;99.90;;;;;;4963010;28;20992;-74
2023/10/08 11:44:59;;;;;;;3.37;2.60;;;18.20;99.90;;;;;;4967268;28;20207;-73
2023/10/08 11:47:34;;;;;;;3.10;2.80;;;18.20;99.90;;;;;;4965798;28;20600;-73
2023/10/08 11:50:09;;;;;;;3.30;3.10;;;18.20;99.90;;;;;;4961534;28;20535;-74
2023/10/08 11:52:41;;;;;;;3.00;2.90;;;18.20;99.90;;;;;;4964945;28;20404;-74
2023/10/08 11:55:07;;;;;;;2.60;2.50;;;18.30;99.90;;;;;;4965196;28;20413;-74
2023/10/08 11:57:35;;;;;;;3.10;2.80;;;18.30;99.90;;;;;;4962180;28;20419;-75
2023/10/08 12:00:18;;;;;;;2.40;2.30;;;18.30;99.90;;;;;;4964759;28;20518;-74
2023/10/08 12:02:47;;;;;;;2.70;2.50;;;18.20;99.90;;;;;;4964042;28;20710;-74
2023/10/08 12:05:19;;;;;;;3.07;2.97;;;18.30;99.90;;;;;;4965439;28;20467;-73
2023/10/08 12:07:58;;;;;;;2.90;2.80;;;18.30;99.90;;;;;;4962392;28;20408;-74
2023/10/08 12:10:24;;;;;;;6.80;6.23;;;18.30;99.90;;;;;;4963638;28;20460;-69
2023/10/08 12:12:54;;;;;;;5.33;4.93;;;18.30;99.90;;;;;;4963434;28;20420;-67
2023/10/08 12:15:26;;;;;;;8.40;5.80;;;18.40;99.90;;;;;;4972967;28;20518;-69
2023/10/08 12:20:37;;;;;;;32.43;24.80;;;19.00;99.90;;;;;;4977619;28;20392;-67
2023/10/08 12:23:05;;;;;;;8.70;7.40;;;19.00;99.90;;;;;;4959279;28;20415;-66
2023/10/08 12:25:32;;;;;;;9.13;7.77;;;19.00;99.90;;;;;;4969327;28;20774;-67
2023/10/08 12:28:04;;;;;;;9.77;8.40;;;19.40;99.90;;;;;;4968478;28;20472;-68
2023/10/08 12:30:31;;;;;;;6.77;6.17;;;19.60;99.90;;;;;;4965951;28;20951;-66
2023/10/08 12:33:00;;;;;;;5.60;5.10;;;19.80;99.90;;;;;;4967672;28;20419;-74
2023/10/08 12:35:29;;;;;;;4.00;3.70;;;20.00;99.90;;;;;;4956582;29;20448;-73
2023/10/08 12:37:55;;;;;;;4.97;4.50;;;20.10;99.90;;;;;;4955734;29;20897;-74
2023/10/08 12:40:24;;;;;;;89.13;74.47;;;20.20;99.90;;;;;;4956679;28;20851;-75
2023/10/08 12:42:54;;;;;;;4.50;4.20;;;20.20;99.90;;;;;;4957358;29;20727;-74
2023/10/08 12:45:20;;;;;;;7.77;5.70;;;20.30;99.90;;;;;;4965495;28;20431;-74
2023/10/08 12:47:53;;;;;;;2.60;2.40;;;20.40;99.90;;;;;;4973502;28;20438;-73
2023/10/08 12:50:29;;;;;;;2.87;2.73;;;20.40;99.90;;;;;;4973284;28;20467;-74
2023/10/08 12:53:03;;;;;;;2.97;2.87;;;20.30;99.90;;;;;;4955376;28;20411;-73
2023/10/08 12:55:30;;;;;;;3.87;3.57;;;20.20;99.90;;;;;;4956856;28;20430;-73
2023/10/08 12:58:05;;;;;;;3.40;3.10;;;20.20;99.90;;;;;;4972787;28;20438;-73
2023/10/08 13:00:32;;;;;;;4.57;4.27;;;20.20;99.90;;;;;;4972806;28;20507;-74
2023/10/08 13:02:57;;;;;;;3.87;3.67;;;20.20;99.90;;;;;;4972344;28;20412;-75
2023/10/08 13:05:27;;;;;;;2.87;2.33;;;20.30;99.90;;;;;;4973212;28;20900;-74
2023/10/08 13:08:03;;;;;;;3.67;3.47;;;20.30;99.90;;;;;;4972293;28;20285;-72
2023/10/08 13:10:30;;;;;;;3.50;3.30;;;20.40;99.90;;;;;;4955659;28;20861;-72
2023/10/08 13:12:57;;;;;;;2.50;2.40;;;20.40;99.90;;;;;;4971936;28;20416;-73
2023/10/08 13:15:25;;;;;;;2.90;2.80;;;20.50;99.90;;;;;;4972207;28;20424;-73
2023/10/08 13:17:54;;;;;;;3.20;3.00;;;20.50;99.90;;;;;;4972051;28;20475;-74
2023/10/08 13:20:21;;;;;;;3.00;2.90;;;20.50;99.90;;;;;;4973161;28;20416;-73
2023/10/08 13:22:47;;;;;;;2.67;2.57;;;20.50;99.90;;;;;;4972030;28;20419;-72
2023/10/08 13:25:12;;;;;;;3.07;2.87;;;20.50;99.90;;;;;;4972784;28;20407;-74
2023/10/08 13:27:40;;;;;;;3.47;3.17;;;20.30;99.90;;;;;;4971552;28;20262;-75
2023/10/08 13:30:09;;;;;;;3.40;3.20;;;19.90;99.90;;;;;;4971960;28;21264;-73
2023/10/08 13:32:36;;;;;;;2.93;2.83;;;19.50;99.90;;;;;;4962524;28;20452;-75
2023/10/08 13:35:05;;;;;;;3.87;3.67;;;19.50;99.90;;;;;;4952721;28;20435;-74
2023/10/08 13:37:35;;;;;;;6.17;5.60;;;19.70;99.90;;;;;;4953595;29;20424;-73
2023/10/08 13:40:01;;;;;;;6.40;5.80;;;19.90;99.90;;;;;;4952309;29;20800;-71
2023/10/08 13:42:27;;;;;;;3.00;2.90;;;20.20;99.90;;;;;;4953281;29;20424;-74
2023/10/08 13:44:54;;;;;;;3.63;3.43;;;20.30;99.90;;;;;;4959572;28;20435;-72
2023/10/08 13:47:25;;;;;;;3.43;2.97;;;20.40;99.90;;;;;;4971370;28;20541;-74
2023/10/08 13:49:52;;;;;;;3.63;3.43;;;20.50;99.90;;;;;;4957556;28;20531;-73
2023/10/08 13:52:26;;;;;;;3.90;3.70;;;20.20;99.90;;;;;;4939301;29;20943;-72
2023/10/08 13:54:54;;;;;;;3.50;3.17;;;20.10;99.90;;;;;;4955051;28;20398;-73
2023/10/08 13:57:20;;;;;;;3.90;3.70;;;20.10;99.90;;;;;;4974653;28;20452;-74
2023/10/08 13:59:49;;;;;;;3.90;3.60;;;20.00;99.90;;;;;;4974862;28;20927;-74
2023/10/08 14:02:15;;;;;;;3.30;3.10;;;20.10;99.90;;;;;;4975383;28;20416;-73
2023/10/08 14:04:45;;;;;;;12.40;11.20;;;20.20;99.90;;;;;;4975532;28;20431;-73
2023/10/08 14:07:11;;;;;;;4.10;3.80;;;20.30;99.90;;;;;;4975290;28;20482;-75
2023/10/08 14:09:38;;;;;;;4.43;4.13;;;20.40;99.90;;;;;;4975452;28;20543;-73
2023/10/08 14:12:07;;;;;;;3.63;3.43;;;20.40;99.90;;;;;;4974810;28;20416;-66
2023/10/08 14:14:34;;;;;;;4.20;3.90;;;20.40;99.90;;;;;;4972746;28;20514;-71
2023/10/08 14:17:05;;;;;;;4.80;4.40;;;20.40;99.90;;;;;;4972154;28;20890;-65